METAR Data
IDs: Format: Raw Decoded Include TAF

Data at: 1449 UTC 22 Apr 2021

KAPF 221353Z 05010KT 10SM SCT110 23/15 A3007 RMK AO2 SLP182 T02330150
KAPF 221253Z 02009KT 10SM FEW075 SCT110 22/17 A3006 RMK AO2 SLP178 T02170167
KAPF 221153Z 36005KT 10SM BKN075 21/16 A3006 RMK AO2 SLP176 70004 T02060156 10222 20200 53016
KAPF 221053Z 35007KT 9SM OVC075 20/16 A3004 RMK AO2 SLP169 T02000156
KAPF 220953Z 01004KT 10SM SCT080 SCT120 20/16 A3002 RMK AO2 SLP164 T02000156
KAPF 220853Z AUTO 36005KT 10SM CLR 20/15 A3001 RMK AO2 SLP160 T02000150 55004
KAPF 220753Z AUTO 01004KT 10SM CLR 21/16 A3001 RMK AO2 SLP159 T02060161
KAPF 220653Z AUTO 34007KT 10SM CLR 22/16 A3001 RMK AO2 SLP159 T02170161
KAPF 220553Z AUTO 35003KT 10SM FEW055 BKN065 22/17 A3002 RMK AO2 SLP165 T02220167 10239 20222 56005
KAPF 220453Z AUTO 35003KT 9SM CLR 22/18 A3002 RMK AO2 SLP166 T02220178 402610217
KAPF 220353Z AUTO 33003KT 9SM CLR 23/18 A3003 RMK AO2 SLP167 T02280178
KAPF 220253Z AUTO 00000KT 10SM CLR 23/19 A3004 RMK AO2 SLP170 T02330189 53016
KAPF 220153Z AUTO 30003KT 10SM FEW120 24/19 A3001 RMK AO2 SLP160 T02390189
KAPF 220053Z AUTO 32006KT 10SM CLR 24/19 A3000 RMK AO2 SLP157 T02390189
KAPF 212353Z 31007KT 10SM CLR 24/19 A2999 RMK AO2 SLP154 60000 T02390189 10261 20239 50002
KAPF 212253Z 30009KT 10SM FEW120 24/19 A2999 RMK AO2 SLP155 T02440194
KAPF 212153Z 28008KT 10SM CLR 26/19 A2999 RMK AO2 RAB06E15 SLP154 P0000 T02560189
KAPF 212053Z 28006KT 10SM SCT110 26/21 A2998 RMK AO2 SLP152 T02560206 56006
KAPF 211953Z 28006KT 10SM SCT018 OVC043 26/22 A2999 RMK AO2 SLP153 T02560217
KAPF 211853Z VRB03KT 10SM FEW016 SCT040 26/22 A2998 RMK AO2 SLP151 T02560217
KAPF 211805Z VRB03KT 10SM SCT018 BKN033 26/22 A2999 RMK AO2 PRESFR T02560222
KAPF 211753Z 33003KT 10SM BKN018 BKN033 OVC047 25/22 A3000 RMK AO2 PRESFR SLP158 60004 T02500217 10256 20233 58004
KAPF 211715Z VRB03KT 10SM BKN013 BKN018 OVC045 25/23 A3002 RMK AO2 T02500228
KAPF 211653Z 28003KT 10SM OVC037 24/22 A3003 RMK AO2 LTG DSNT S AND SW SLP168 T02440222
KAPF 211600Z 33003KT 10SM OVC032 24/23 A3003 RMK AO2 T02440228
KAPF 211553Z 00000KT 6SM BR BKN025 OVC055 24/23 A3002 RMK AO2 RAE03 SLP164 P0000 T02440228
KAPF 211453Z 07006KT 3SM RA BR BKN025 BKN039 OVC055 24/23 A3001 RMK AO2 LTG DSNT E RAB43 SLP162 P0004 60004 T02390228 53011
KAPF 211451Z 07006KT 3SM RA BR BKN025 BKN039 OVC055 24/22 A3001 RMK AO2 RAB43 P0004
KAPF 211442Z 03005KT 9SM VCTS BKN012 BKN022 OVC050 24/23 A3001 RMK AO2 LTG DSNT E T02440228
KAPF 211411Z 36003KT 10SM BKN012 BKN022 OVC050 24/23 A3001 RMK AO2 T02440228
KAPF 211404Z 35004KT 10SM SCT012 BKN022 OVC050 24/23 A3000 RMK AO2 T02440228
KAPF 211353Z 01006KT 10SM BKN012 BKN021 OVC027 24/23 A3000 RMK AO2 SLP159 T02440228
KAPF 211342Z 28008KT 9SM BKN014 OVC025 25/23 A3000 RMK AO2 T02500228
KAPF 211322Z 23005KT 9SM SCT014 BKN023 BKN027 26/23 A2999 RMK AO2 T02560228
KAPF 211253Z 24006KT 10SM SCT015 SCT027 BKN070 26/23 A2998 RMK AO2 LTG DSNT N AND NE SLP151 T02560228
KAPF 211153Z 00000KT 7SM CLR 23/22 A2998 RMK AO2 SLP151 70006 T02330222 10233 20217 53004 $
KAPF 211053Z 14003KT 7SM CLR 22/21 A2996 RMK AO2 SLP144 T02170211 $
KAPF 210953Z 00000KT 7SM CLR 22/22 A2996 RMK AO2 SLP143 T02220217 $
KAPF 210853Z AUTO 00000KT 7SM FEW060 22/22 A2997 RMK AO2 SLP147 T02220217 53003 $
KAPF 210753Z AUTO 24004KT 8SM CLR 23/22 A2996 RMK AO2 SLP146 T02280217 $
KAPF 210653Z AUTO 00000KT 8SM FEW017 SCT028 23/22 A2996 RMK AO2 SLP144 T02280217 $
KAPF 210553Z AUTO 00000KT 8SM CLR 23/22 A2996 RMK AO2 SLP144 T02280217 10250 20228 58009 $
KAPF 210453Z AUTO 29003KT 8SM FEW013 24/22 A2997 RMK AO2 SLP149 T02390222 402720217 $
KAPF 210419Z AUTO 26003KT 9SM SCT017 24/22 A2998 RMK AO2 T02390222 $
KAPF 210353Z AUTO 26003KT 9SM BKN016 24/22 A2999 RMK AO2 SLP154 T02440222 $
KAPF 210350Z AUTO 25004KT 9SM BKN016 BKN022 24/22 A2999 RMK AO2 $
KAPF 210332Z AUTO 28005KT 9SM SCT018 24/22 A2999 RMK AO2 T02390222 $
KAPF 210322Z AUTO 26005KT 9SM BKN018 24/22 A2999 RMK AO2 T02440222 $
KAPF 210253Z AUTO 25005KT 9SM SCT018 24/22 A2998 RMK AO2 SLP151 T02390217 51016 $
KAPF 210251Z AUTO 25004KT 9SM SCT018 24/22 A2998 RMK AO2 $